sensor_id;sensor_type;location;lat;lon;timestamp;P1;durP1;ratioP1;P2;durP2;ratioP2
22786;SDS011;63134;52.020;4.714;2022-09-09T00:00:16;13.70;;;8.20;;
22786;SDS011;63134;52.020;4.714;2022-09-09T00:09:13;14.65;;;9.40;;
22786;SDS011;63134;52.020;4.714;2022-09-09T00:12:06;17.50;;;9.88;;
22786;SDS011;63134;52.020;4.714;2022-09-09T00:15:03;15.43;;;10.75;;
22786;SDS011;63134;52.020;4.714;2022-09-09T00:17:58;20.40;;;9.73;;
22786;SDS011;63134;52.020;4.714;2022-09-09T00:21:07;14.85;;;10.43;;
22786;SDS011;63134;52.020;4.714;2022-09-09T00:26:51;15.82;;;11.73;;
22786;SDS011;63134;52.020;4.714;2022-09-09T00:29:47;26.83;;;12.68;;
22786;SDS011;63134;52.020;4.714;2022-09-09T00:32:34;21.77;;;12.23;;
22786;SDS011;63134;52.020;4.714;2022-09-09T00:38:36;17.38;;;12.30;;
22786;SDS011;63134;52.020;4.714;2022-09-09T00:54:18;23.17;;;15.90;;
22786;SDS011;63134;52.020;4.714;2022-09-09T00:57:04;25.30;;;15.25;;
22786;SDS011;63134;52.020;4.714;2022-09-09T01:00:24;25.45;;;15.63;;
22786;SDS011;63134;52.020;4.714;2022-09-09T01:09:30;33.25;;;16.55;;
22786;SDS011;63134;52.020;4.714;2022-09-09T01:12:39;29.08;;;17.77;;
22786;SDS011;63134;52.020;4.714;2022-09-09T01:15:29;25.17;;;16.35;;
22786;SDS011;63134;52.020;4.714;2022-09-09T01:18:17;24.60;;;17.30;;
22786;SDS011;63134;52.020;4.714;2022-09-09T01:21:16;28.08;;;18.05;;
22786;SDS011;63134;52.020;4.714;2022-09-09T01:27:33;33.07;;;18.20;;
22786;SDS011;63134;52.020;4.714;2022-09-09T01:30:20;29.02;;;18.98;;
22786;SDS011;63134;52.020;4.714;2022-09-09T01:33:07;35.47;;;18.52;;
22786;SDS011;63134;52.020;4.714;2022-09-09T01:36:03;31.20;;;18.77;;
22786;SDS011;63134;52.020;4.714;2022-09-09T01:39:01;32.15;;;18.00;;
22786;SDS011;63134;52.020;4.714;2022-09-09T01:41:47;23.52;;;16.73;;
22786;SDS011;63134;52.020;4.714;2022-09-09T01:44:35;28.60;;;17.17;;
22786;SDS011;63134;52.020;4.714;2022-09-09T01:47:26;32.22;;;18.00;;
22786;SDS011;63134;52.020;4.714;2022-09-09T01:50:35;23.58;;;16.25;;
22786;SDS011;63134;52.020;4.714;2022-09-09T01:53:21;30.60;;;16.17;;
22786;SDS011;63134;52.020;4.714;2022-09-09T01:56:10;26.83;;;15.77;;
22786;SDS011;63134;52.020;4.714;2022-09-09T02:02:19;26.58;;;17.10;;
22786;SDS011;63134;52.020;4.714;2022-09-09T02:05:37;31.25;;;16.17;;
22786;SDS011;63134;52.020;4.714;2022-09-09T02:08:45;26.75;;;15.45;;
22786;SDS011;63134;52.020;4.714;2022-09-09T02:11:36;27.65;;;16.35;;
22786;SDS011;63134;52.020;4.714;2022-09-09T02:14:42;31.65;;;16.00;;
22786;SDS011;63134;52.020;4.714;2022-09-09T02:17:37;25.13;;;15.23;;
22786;SDS011;63134;52.020;4.714;2022-09-09T02:20:30;24.02;;;15.32;;
22786;SDS011;63134;52.020;4.714;2022-09-09T02:23:19;22.42;;;15.18;;
22786;SDS011;63134;52.020;4.714;2022-09-09T02:26:10;28.85;;;15.18;;
22786;SDS011;63134;52.020;4.714;2022-09-09T02:28:58;25.52;;;14.70;;
22786;SDS011;63134;52.020;4.714;2022-09-09T02:31:47;32.25;;;16.25;;
22786;SDS011;63134;52.020;4.714;2022-09-09T02:34:42;29.90;;;16.67;;
22786;SDS011;63134;52.020;4.714;2022-09-09T02:37:35;28.23;;;16.48;;
22786;SDS011;63134;52.020;4.714;2022-09-09T02:40:23;32.10;;;15.70;;
22786;SDS011;63134;52.020;4.714;2022-09-09T02:43:15;34.70;;;17.75;;
22786;SDS011;63134;52.020;4.714;2022-09-09T02:49:17;29.67;;;17.83;;
22786;SDS011;63134;52.020;4.714;2022-09-09T02:52:14;32.30;;;17.83;;
22786;SDS011;63134;52.020;4.714;2022-09-09T02:55:11;27.85;;;17.42;;
22786;SDS011;63134;52.020;4.714;2022-09-09T02:58:04;31.85;;;17.63;;
22786;SDS011;63134;52.020;4.714;2022-09-09T03:00:52;27.45;;;17.42;;
22786;SDS011;63134;52.020;4.714;2022-09-09T03:03:38;38.13;;;18.45;;
22786;SDS011;63134;52.020;4.714;2022-09-09T03:06:28;30.67;;;17.35;;
22786;SDS011;63134;52.020;4.714;2022-09-09T03:09:22;34.35;;;18.13;;
22786;SDS011;63134;52.020;4.714;2022-09-09T03:12:08;33.88;;;18.25;;
22786;SDS011;63134;52.020;4.714;2022-09-09T03:14:56;37.60;;;18.73;;
22786;SDS011;63134;52.020;4.714;2022-09-09T03:17:42;34.72;;;17.27;;
22786;SDS011;63134;52.020;4.714;2022-09-09T03:20:28;31.75;;;19.30;;
22786;SDS011;63134;52.020;4.714;2022-09-09T03:23:14;32.78;;;19.40;;
22786;SDS011;63134;52.020;4.714;2022-09-09T03:26:01;40.08;;;19.33;;
22786;SDS011;63134;52.020;4.714;2022-09-09T03:28:56;38.92;;;19.67;;
22786;SDS011;63134;52.020;4.714;2022-09-09T03:31:41;27.80;;;17.63;;
22786;SDS011;63134;52.020;4.714;2022-09-09T03:34:27;30.33;;;17.80;;
22786;SDS011;63134;52.020;4.714;2022-09-09T03:37:15;36.15;;;18.67;;
22786;SDS011;63134;52.020;4.714;2022-09-09T03:40:02;35.22;;;17.40;;
22786;SDS011;63134;52.020;4.714;2022-09-09T03:42:48;29.80;;;17.15;;
22786;SDS011;63134;52.020;4.714;2022-09-09T03:45:37;36.13;;;18.10;;
22786;SDS011;63134;52.020;4.714;2022-09-09T03:48:23;33.85;;;17.98;;
22786;SDS011;63134;52.020;4.714;2022-09-09T03:51:10;29.27;;;16.80;;
22786;SDS011;63134;52.020;4.714;2022-09-09T03:53:55;31.95;;;16.80;;
22786;SDS011;63134;52.020;4.714;2022-09-09T03:56:44;31.35;;;15.68;;
22786;SDS011;63134;52.020;4.714;2022-09-09T03:59:35;29.42;;;15.05;;
22786;SDS011;63134;52.020;4.714;2022-09-09T04:02:21;26.65;;;14.23;;
22786;SDS011;63134;52.020;4.714;2022-09-09T04:05:06;25.77;;;14.60;;
22786;SDS011;63134;52.020;4.714;2022-09-09T04:07:52;26.17;;;14.20;;
22786;SDS011;63134;52.020;4.714;2022-09-09T04:10:38;23.77;;;13.68;;
22786;SDS011;63134;52.020;4.714;2022-09-09T04:13:24;21.73;;;12.70;;
22786;SDS011;63134;52.020;4.714;2022-09-09T04:16:11;28.48;;;12.73;;
22786;SDS011;63134;52.020;4.714;2022-09-09T04:19:00;19.80;;;11.15;;
22786;SDS011;63134;52.020;4.714;2022-09-09T04:21:46;20.42;;;10.63;;
22786;SDS011;63134;52.020;4.714;2022-09-09T04:24:34;20.55;;;8.75;;
22786;SDS011;63134;52.020;4.714;2022-09-09T04:27:20;15.35;;;9.40;;
22786;SDS011;63134;52.020;4.714;2022-09-09T04:30:06;21.02;;;8.95;;
22786;SDS011;63134;52.020;4.714;2022-09-09T04:32:53;22.52;;;8.75;;
22786;SDS011;63134;52.020;4.714;2022-09-09T04:35:38;23.80;;;8.75;;
22786;SDS011;63134;52.020;4.714;2022-09-09T04:38:24;21.25;;;8.70;;
22786;SDS011;63134;52.020;4.714;2022-09-09T04:41:12;21.75;;;7.38;;
22786;SDS011;63134;52.020;4.714;2022-09-09T04:44:01;16.33;;;7.40;;
22786;SDS011;63134;52.020;4.714;2022-09-09T04:46:47;13.70;;;7.30;;
22786;SDS011;63134;52.020;4.714;2022-09-09T04:49:34;16.85;;;7.78;;
22786;SDS011;63134;52.020;4.714;2022-09-09T04:52:21;23.55;;;8.23;;
22786;SDS011;63134;52.020;4.714;2022-09-09T04:55:09;14.90;;;7.68;;
22786;SDS011;63134;52.020;4.714;2022-09-09T04:58:04;19.25;;;8.27;;
22786;SDS011;63134;52.020;4.714;2022-09-09T05:00:50;21.17;;;7.70;;
22786;SDS011;63134;52.020;4.714;2022-09-09T05:03:38;17.73;;;7.70;;
22786;SDS011;63134;52.020;4.714;2022-09-09T05:06:26;16.60;;;7.25;;
22786;SDS011;63134;52.020;4.714;2022-09-09T05:09:15;22.27;;;7.65;;
22786;SDS011;63134;52.020;4.714;2022-09-09T05:12:02;17.77;;;7.47;;
22786;SDS011;63134;52.020;4.714;2022-09-09T05:14:52;19.00;;;7.30;;
22786;SDS011;63134;52.020;4.714;2022-09-09T05:17:41;20.00;;;7.90;;
22786;SDS011;63134;52.020;4.714;2022-09-09T05:20:27;13.60;;;7.15;;
22786;SDS011;63134;52.020;4.714;2022-09-09T05:23:13;21.35;;;7.60;;
22786;SDS011;63134;52.020;4.714;2022-09-09T05:25:59;25.10;;;6.95;;
22786;SDS011;63134;52.020;4.714;2022-09-09T05:28:45;18.27;;;7.75;;
22786;SDS011;63134;52.020;4.714;2022-09-09T05:31:32;12.93;;;6.47;;
22786;SDS011;63134;52.020;4.714;2022-09-09T05:34:21;21.80;;;6.32;;
22786;SDS011;63134;52.020;4.714;2022-09-09T05:37:12;27.67;;;7.78;;
22786;SDS011;63134;52.020;4.714;2022-09-09T05:39:58;19.33;;;5.85;;
22786;SDS011;63134;52.020;4.714;2022-09-09T05:42:44;20.27;;;6.63;;
22786;SDS011;63134;52.020;4.714;2022-09-09T05:45:30;10.45;;;5.53;;
22786;SDS011;63134;52.020;4.714;2022-09-09T05:48:15;13.60;;;5.72;;
22786;SDS011;63134;52.020;4.714;2022-09-09T05:51:03;19.13;;;6.28;;
22786;SDS011;63134;52.020;4.714;2022-09-09T05:53:50;17.95;;;5.80;;
22786;SDS011;63134;52.020;4.714;2022-09-09T05:56:36;12.68;;;5.53;;
22786;SDS011;63134;52.020;4.714;2022-09-09T05:59:25;11.90;;;4.93;;
22786;SDS011;63134;52.020;4.714;2022-09-09T06:02:13;13.65;;;5.55;;
22786;SDS011;63134;52.020;4.714;2022-09-09T06:04:59;18.60;;;5.85;;
22786;SDS011;63134;52.020;4.714;2022-09-09T06:07:46;20.00;;;5.78;;
22786;SDS011;63134;52.020;4.714;2022-09-09T06:10:31;17.40;;;4.85;;
22786;SDS011;63134;52.020;4.714;2022-09-09T06:13:18;18.23;;;5.45;;
22786;SDS011;63134;52.020;4.714;2022-09-09T06:16:04;17.55;;;5.60;;
22786;SDS011;63134;52.020;4.714;2022-09-09T06:18:54;20.23;;;5.38;;
22786;SDS011;63134;52.020;4.714;2022-09-09T06:21:42;15.48;;;4.32;;
22786;SDS011;63134;52.020;4.714;2022-09-09T06:24:29;18.40;;;4.95;;
22786;SDS011;63134;52.020;4.714;2022-09-09T06:27:16;17.83;;;4.30;;
22786;SDS011;63134;52.020;4.714;2022-09-09T06:30:02;15.60;;;3.97;;
22786;SDS011;63134;52.020;4.714;2022-09-09T06:32:48;19.30;;;4.68;;
22786;SDS011;63134;52.020;4.714;2022-09-09T06:35:35;17.33;;;4.80;;
22786;SDS011;63134;52.020;4.714;2022-09-09T06:38:21;15.43;;;4.45;;
22786;SDS011;63134;52.020;4.714;2022-09-09T06:41:08;15.40;;;4.90;;
22786;SDS011;63134;52.020;4.714;2022-09-09T06:43:56;19.67;;;4.85;;
22786;SDS011;63134;52.020;4.714;2022-09-09T06:46:51;19.77;;;5.13;;
22786;SDS011;63134;52.020;4.714;2022-09-09T06:49:36;16.75;;;4.10;;
22786;SDS011;63134;52.020;4.714;2022-09-09T06:52:25;15.38;;;4.88;;
22786;SDS011;63134;52.020;4.714;2022-09-09T06:55:13;16.63;;;4.75;;
22786;SDS011;63134;52.020;4.714;2022-09-09T06:58:00;15.52;;;5.32;;
22786;SDS011;63134;52.020;4.714;2022-09-09T07:00:47;19.92;;;5.55;;
22786;SDS011;63134;52.020;4.714;2022-09-09T07:03:33;24.42;;;4.97;;
22786;SDS011;63134;52.020;4.714;2022-09-09T07:06:20;13.93;;;5.43;;
22786;SDS011;63134;52.020;4.714;2022-09-09T07:09:27;16.27;;;5.30;;
22786;SDS011;63134;52.020;4.714;2022-09-09T07:12:14;18.02;;;5.78;;
22786;SDS011;63134;52.020;4.714;2022-09-09T07:15:10;21.13;;;5.40;;
22786;SDS011;63134;52.020;4.714;2022-09-09T07:18:00;14.73;;;4.82;;
22786;SDS011;63134;52.020;4.714;2022-09-09T07:20:52;11.18;;;4.82;;
22786;SDS011;63134;52.020;4.714;2022-09-09T07:23:40;14.73;;;4.38;;
22786;SDS011;63134;52.020;4.714;2022-09-09T07:26:28;13.25;;;4.55;;
22786;SDS011;63134;52.020;4.714;2022-09-09T07:29:17;14.63;;;4.82;;
22786;SDS011;63134;52.020;4.714;2022-09-09T07:32:05;14.57;;;4.93;;
22786;SDS011;63134;52.020;4.714;2022-09-09T07:34:53;19.92;;;5.05;;
22786;SDS011;63134;52.020;4.714;2022-09-09T07:37:39;14.15;;;4.40;;
22786;SDS011;63134;52.020;4.714;2022-09-09T07:40:26;14.90;;;4.30;;
22786;SDS011;63134;52.020;4.714;2022-09-09T07:43:11;20.08;;;4.90;;
22786;SDS011;63134;52.020;4.714;2022-09-09T07:46:01;13.25;;;4.90;;
22786;SDS011;63134;52.020;4.714;2022-09-09T07:48:48;13.77;;;4.90;;
22786;SDS011;63134;52.020;4.714;2022-09-09T07:51:42;12.90;;;4.57;;
22786;SDS011;63134;52.020;4.714;2022-09-09T07:54:30;14.13;;;4.80;;
22786;SDS011;63134;52.020;4.714;2022-09-09T07:57:18;13.40;;;4.78;;
22786;SDS011;63134;52.020;4.714;2022-09-09T08:00:04;23.08;;;5.82;;
22786;SDS011;63134;52.020;4.714;2022-09-09T08:02:56;19.23;;;5.18;;
22786;SDS011;63134;52.020;4.714;2022-09-09T08:05:41;13.65;;;5.10;;
22786;SDS011;63134;52.020;4.714;2022-09-09T08:08:28;18.80;;;5.07;;
22786;SDS011;63134;52.020;4.714;2022-09-09T08:11:14;18.23;;;4.80;;
22786;SDS011;63134;52.020;4.714;2022-09-09T08:14:00;17.23;;;5.40;;
22786;SDS011;63134;52.020;4.714;2022-09-09T08:16:47;13.10;;;4.53;;
22786;SDS011;63134;52.020;4.714;2022-09-09T08:19:37;15.15;;;5.05;;
22786;SDS011;63134;52.020;4.714;2022-09-09T08:22:28;12.15;;;4.70;;
22786;SDS011;63134;52.020;4.714;2022-09-09T08:25:14;20.08;;;5.47;;
22786;SDS011;63134;52.020;4.714;2022-09-09T08:27:59;17.38;;;4.85;;
22786;SDS011;63134;52.020;4.714;2022-09-09T08:30:44;13.75;;;4.75;;
22786;SDS011;63134;52.020;4.714;2022-09-09T08:33:30;11.45;;;4.30;;
22786;SDS011;63134;52.020;4.714;2022-09-09T08:36:17;14.90;;;4.45;;
22786;SDS011;63134;52.020;4.714;2022-09-09T08:39:05;18.05;;;4.55;;
22786;SDS011;63134;52.020;4.714;2022-09-09T08:51:06;13.90;;;4.50;;
22786;SDS011;63134;52.020;4.714;2022-09-09T08:53:55;17.45;;;4.13;;
22786;SDS011;63134;52.020;4.714;2022-09-09T08:56:46;13.15;;;3.85;;
22786;SDS011;63134;52.020;4.714;2022-09-09T08:59:32;13.48;;;4.00;;
22786;SDS011;63134;52.020;4.714;2022-09-09T09:05:46;14.63;;;4.55;;
22786;SDS011;63134;52.020;4.714;2022-09-09T09:08:39;13.98;;;4.40;;
22786;SDS011;63134;52.020;4.714;2022-09-09T09:11:36;16.48;;;4.32;;
22786;SDS011;63134;52.020;4.714;2022-09-09T09:14:24;14.48;;;4.70;;
22786;SDS011;63134;52.020;4.714;2022-09-09T09:17:17;13.93;;;4.78;;
22786;SDS011;63134;52.020;4.714;2022-09-09T09:20:10;16.17;;;4.53;;
22786;SDS011;63134;52.020;4.714;2022-09-09T09:23:00;17.75;;;4.75;;
22786;SDS011;63134;52.020;4.714;2022-09-09T09:25:48;18.73;;;4.43;;
22786;SDS011;63134;52.020;4.714;2022-09-09T09:28:37;22.98;;;4.72;;
22786;SDS011;63134;52.020;4.714;2022-09-09T09:31:30;13.52;;;4.07;;
22786;SDS011;63134;52.020;4.714;2022-09-09T09:34:16;18.60;;;4.57;;
22786;SDS011;63134;52.020;4.714;2022-09-09T09:37:07;16.25;;;4.05;;
22786;SDS011;63134;52.020;4.714;2022-09-09T09:40:10;14.45;;;3.92;;
22786;SDS011;63134;52.020;4.714;2022-09-09T09:43:05;17.23;;;4.20;;
22786;SDS011;63134;52.020;4.714;2022-09-09T09:46:04;14.77;;;4.43;;
22786;SDS011;63134;52.020;4.714;2022-09-09T09:49:03;18.55;;;4.22;;
22786;SDS011;63134;52.020;4.714;2022-09-09T09:51:52;22.25;;;4.47;;
22786;SDS011;63134;52.020;4.714;2022-09-09T09:54:41;15.98;;;3.50;;
22786;SDS011;63134;52.020;4.714;2022-09-09T09:57:28;14.55;;;3.20;;
22786;SDS011;63134;52.020;4.714;2022-09-09T10:00:22;15.00;;;3.20;;
22786;SDS011;63134;52.020;4.714;2022-09-09T10:03:29;13.35;;;4.65;;
22786;SDS011;63134;52.020;4.714;2022-09-09T10:06:29;14.38;;;3.40;;
22786;SDS011;63134;52.020;4.714;2022-09-09T10:09:29;13.77;;;3.60;;
22786;SDS011;63134;52.020;4.714;2022-09-09T10:12:23;14.40;;;3.53;;
22786;SDS011;63134;52.020;4.714;2022-09-09T10:24:11;13.05;;;3.08;;
22786;SDS011;63134;52.020;4.714;2022-09-09T10:33:44;11.43;;;2.85;;
22786;SDS011;63134;52.020;4.714;2022-09-09T10:36:35;11.27;;;2.88;;
22786;SDS011;63134;52.020;4.714;2022-09-09T10:39:34;13.52;;;2.95;;
22786;SDS011;63134;52.020;4.714;2022-09-09T10:42:28;11.60;;;2.60;;
22786;SDS011;63134;52.020;4.714;2022-09-09T10:54:45;14.52;;;2.65;;
22786;SDS011;63134;52.020;4.714;2022-09-09T10:58:20;8.32;;;2.55;;
22786;SDS011;63134;52.020;4.714;2022-09-09T11:04:12;9.98;;;2.63;;
22786;SDS011;63134;52.020;4.714;2022-09-09T11:07:05;5.03;;;1.90;;
22786;SDS011;63134;52.020;4.714;2022-09-09T11:09:58;7.38;;;2.35;;
22786;SDS011;63134;52.020;4.714;2022-09-09T11:12:51;6.82;;;2.03;;
22786;SDS011;63134;52.020;4.714;2022-09-09T11:15:42;5.95;;;2.00;;
22786;SDS011;63134;52.020;4.714;2022-09-09T11:18:31;7.95;;;2.20;;
22786;SDS011;63134;52.020;4.714;2022-09-09T11:21:26;11.30;;;2.45;;
22786;SDS011;63134;52.020;4.714;2022-09-09T11:24:21;4.60;;;1.85;;
22786;SDS011;63134;52.020;4.714;2022-09-09T11:27:21;6.97;;;2.15;;
22786;SDS011;63134;52.020;4.714;2022-09-09T11:30:19;5.35;;;2.13;;
22786;SDS011;63134;52.020;4.714;2022-09-09T11:33:30;11.93;;;2.30;;
22786;SDS011;63134;52.020;4.714;2022-09-09T11:42:42;7.88;;;2.47;;
22786;SDS011;63134;52.020;4.714;2022-09-09T11:45:28;5.70;;;2.70;;
22786;SDS011;63134;52.020;4.714;2022-09-09T11:48:28;10.15;;;3.03;;
22786;SDS011;63134;52.020;4.714;2022-09-09T11:57:31;14.95;;;3.45;;
22786;SDS011;63134;52.020;4.714;2022-09-09T12:00:39;14.33;;;3.27;;
22786;SDS011;63134;52.020;4.714;2022-09-09T12:03:40;12.30;;;4.10;;
22786;SDS011;63134;52.020;4.714;2022-09-09T12:06:29;12.30;;;5.22;;
22786;SDS011;63134;52.020;4.714;2022-09-09T12:09:43;9.88;;;4.50;;
22786;SDS011;63134;52.020;4.714;2022-09-09T12:12:34;13.23;;;4.72;;
22786;SDS011;63134;52.020;4.714;2022-09-09T12:15:28;15.50;;;5.20;;
22786;SDS011;63134;52.020;4.714;2022-09-09T12:18:15;15.68;;;4.82;;
22786;SDS011;63134;52.020;4.714;2022-09-09T12:21:33;10.13;;;4.50;;
22786;SDS011;63134;52.020;4.714;2022-09-09T12:24:33;11.45;;;4.30;;
22786;SDS011;63134;52.020;4.714;2022-09-09T12:27:28;10.85;;;4.15;;
22786;SDS011;63134;52.020;4.714;2022-09-09T12:30:28;14.20;;;4.57;;
22786;SDS011;63134;52.020;4.714;2022-09-09T12:33:18;18.80;;;6.47;;
22786;SDS011;63134;52.020;4.714;2022-09-09T12:36:04;29.95;;;9.23;;
22786;SDS011;63134;52.020;4.714;2022-09-09T12:38:52;20.77;;;8.70;;
22786;SDS011;63134;52.020;4.714;2022-09-09T12:41:39;13.68;;;7.00;;
22786;SDS011;63134;52.020;4.714;2022-09-09T12:44:25;16.00;;;9.20;;
22786;SDS011;63134;52.020;4.714;2022-09-09T12:47:15;17.23;;;7.25;;
22786;SDS011;63134;52.020;4.714;2022-09-09T12:50:00;16.55;;;6.82;;
22786;SDS011;63134;52.020;4.714;2022-09-09T12:52:47;15.85;;;5.10;;
22786;SDS011;63134;52.020;4.714;2022-09-09T12:55:35;12.43;;;5.00;;
22786;SDS011;63134;52.020;4.714;2022-09-09T12:58:22;14.32;;;4.47;;
22786;SDS011;63134;52.020;4.714;2022-09-09T13:01:17;12.63;;;4.88;;
22786;SDS011;63134;52.020;4.714;2022-09-09T13:04:19;10.10;;;4.65;;
22786;SDS011;63134;52.020;4.714;2022-09-09T13:07:07;12.45;;;4.70;;
22786;SDS011;63134;52.020;4.714;2022-09-09T13:09:58;6.75;;;3.83;;
22786;SDS011;63134;52.020;4.714;2022-09-09T13:12:43;10.68;;;3.88;;
22786;SDS011;63134;52.020;4.714;2022-09-09T13:15:29;12.68;;;4.20;;
22786;SDS011;63134;52.020;4.714;2022-09-09T13:18:14;12.27;;;3.78;;
22786;SDS011;63134;52.020;4.714;2022-09-09T13:20:59;10.38;;;3.83;;
22786;SDS011;63134;52.020;4.714;2022-09-09T13:23:49;9.57;;;3.40;;
22786;SDS011;63134;52.020;4.714;2022-09-09T13:26:36;11.05;;;3.95;;
22786;SDS011;63134;52.020;4.714;2022-09-09T13:29:23;8.43;;;2.95;;
22786;SDS011;63134;52.020;4.714;2022-09-09T13:32:15;8.27;;;3.20;;
22786;SDS011;63134;52.020;4.714;2022-09-09T13:35:02;10.98;;;3.67;;
22786;SDS011;63134;52.020;4.714;2022-09-09T13:37:47;6.55;;;2.63;;
22786;SDS011;63134;52.020;4.714;2022-09-09T13:40:33;9.80;;;2.78;;
22786;SDS011;63134;52.020;4.714;2022-09-09T13:43:20;5.90;;;2.10;;
22786;SDS011;63134;52.020;4.714;2022-09-09T13:46:25;6.38;;;2.58;;
22786;SDS011;63134;52.020;4.714;2022-09-09T13:49:22;13.63;;;2.55;;
22786;SDS011;63134;52.020;4.714;2022-09-09T13:55:03;4.50;;;2.25;;
22786;SDS011;63134;52.020;4.714;2022-09-09T13:58:02;6.93;;;2.50;;
22786;SDS011;63134;52.020;4.714;2022-09-09T14:00:49;10.18;;;2.72;;
22786;SDS011;63134;52.020;4.714;2022-09-09T14:03:35;9.05;;;2.25;;
22786;SDS011;63134;52.020;4.714;2022-09-09T14:06:23;7.00;;;1.90;;
22786;SDS011;63134;52.020;4.714;2022-09-09T14:09:13;6.35;;;1.90;;
22786;SDS011;63134;52.020;4.714;2022-09-09T14:12:00;8.63;;;1.80;;
22786;SDS011;63134;52.020;4.714;2022-09-09T14:14:46;5.88;;;1.77;;
22786;SDS011;63134;52.020;4.714;2022-09-09T14:17:32;16.65;;;2.35;;
22786;SDS011;63134;52.020;4.714;2022-09-09T14:20:18;5.68;;;2.30;;
22786;SDS011;63134;52.020;4.714;2022-09-09T14:23:03;7.97;;;2.58;;
22786;SDS011;63134;52.020;4.714;2022-09-09T14:25:49;10.85;;;2.78;;
22786;SDS011;63134;52.020;4.714;2022-09-09T14:28:36;7.28;;;3.10;;
22786;SDS011;63134;52.020;4.714;2022-09-09T14:31:41;11.35;;;3.60;;
22786;SDS011;63134;52.020;4.714;2022-09-09T14:34:29;15.38;;;4.18;;
22786;SDS011;63134;52.020;4.714;2022-09-09T14:37:17;10.20;;;3.53;;
22786;SDS011;63134;52.020;4.714;2022-09-09T14:40:02;9.02;;;4.05;;
22786;SDS011;63134;52.020;4.714;2022-09-09T14:42:48;11.30;;;3.85;;
22786;SDS011;63134;52.020;4.714;2022-09-09T14:45:35;6.10;;;3.10;;
22786;SDS011;63134;52.020;4.714;2022-09-09T14:48:22;9.68;;;3.38;;
22786;SDS011;63134;52.020;4.714;2022-09-09T14:51:08;6.50;;;3.30;;
22786;SDS011;63134;52.020;4.714;2022-09-09T14:53:58;6.15;;;2.65;;
22786;SDS011;63134;52.020;4.714;2022-09-09T14:56:44;8.93;;;2.70;;
22786;SDS011;63134;52.020;4.714;2022-09-09T14:59:29;9.82;;;2.53;;
22786;SDS011;63134;52.020;4.714;2022-09-09T15:02:15;9.02;;;2.35;;
22786;SDS011;63134;52.020;4.714;2022-09-09T15:05:01;6.57;;;2.45;;
22786;SDS011;63134;52.020;4.714;2022-09-09T15:07:46;8.38;;;1.88;;
22786;SDS011;63134;52.020;4.714;2022-09-09T15:10:32;4.88;;;1.45;;
22786;SDS011;63134;52.020;4.714;2022-09-09T15:13:24;5.13;;;1.40;;
22786;SDS011;63134;52.020;4.714;2022-09-09T15:16:11;3.50;;;1.17;;
22786;SDS011;63134;52.020;4.714;2022-09-09T15:19:01;6.50;;;1.48;;
22786;SDS011;63134;52.020;4.714;2022-09-09T15:21:47;6.68;;;1.48;;
22786;SDS011;63134;52.020;4.714;2022-09-09T15:24:32;4.43;;;1.33;;
22786;SDS011;63134;52.020;4.714;2022-09-09T15:27:18;5.78;;;1.67;;
22786;SDS011;63134;52.020;4.714;2022-09-09T15:30:04;5.32;;;1.67;;
22786;SDS011;63134;52.020;4.714;2022-09-09T15:32:50;5.80;;;1.50;;
22786;SDS011;63134;52.020;4.714;2022-09-09T15:35:37;5.72;;;1.60;;
22786;SDS011;63134;52.020;4.714;2022-09-09T15:38:23;4.45;;;1.60;;
22786;SDS011;63134;52.020;4.714;2022-09-09T15:41:08;5.65;;;1.45;;
22786;SDS011;63134;52.020;4.714;2022-09-09T15:43:54;3.90;;;1.30;;
22786;SDS011;63134;52.020;4.714;2022-09-09T15:46:53;6.97;;;1.65;;
22786;SDS011;63134;52.020;4.714;2022-09-09T15:49:38;6.47;;;1.55;;
22786;SDS011;63134;52.020;4.714;2022-09-09T15:52:23;6.72;;;1.70;;
22786;SDS011;63134;52.020;4.714;2022-09-09T15:55:09;8.95;;;2.45;;
22786;SDS011;63134;52.020;4.714;2022-09-09T15:57:54;9.90;;;2.80;;
22786;SDS011;63134;52.020;4.714;2022-09-09T16:00:40;9.55;;;2.50;;
22786;SDS011;63134;52.020;4.714;2022-09-09T16:03:28;13.70;;;2.90;;
22786;SDS011;63134;52.020;4.714;2022-09-09T16:06:14;7.13;;;2.58;;
22786;SDS011;63134;52.020;4.714;2022-09-09T16:09:00;10.65;;;3.00;;
22786;SDS011;63134;52.020;4.714;2022-09-09T16:11:48;11.93;;;3.00;;
22786;SDS011;63134;52.020;4.714;2022-09-09T16:14:34;15.48;;;2.90;;
22786;SDS011;63134;52.020;4.714;2022-09-09T16:17:20;9.82;;;2.85;;
22786;SDS011;63134;52.020;4.714;2022-09-09T16:20:06;11.95;;;3.50;;
22786;SDS011;63134;52.020;4.714;2022-09-09T16:22:55;8.98;;;3.92;;
22786;SDS011;63134;52.020;4.714;2022-09-09T16:25:41;11.73;;;3.90;;
22786;SDS011;63134;52.020;4.714;2022-09-09T16:28:27;27.95;;;5.05;;
22786;SDS011;63134;52.020;4.714;2022-09-09T16:31:14;42.20;;;10.70;;
22786;SDS011;63134;52.020;4.714;2022-09-09T16:34:08;30.60;;;11.67;;
22786;SDS011;63134;52.020;4.714;2022-09-09T16:36:54;25.00;;;11.75;;
22786;SDS011;63134;52.020;4.714;2022-09-09T16:39:39;28.23;;;13.85;;
22786;SDS011;63134;52.020;4.714;2022-09-09T16:42:27;26.23;;;12.38;;
22786;SDS011;63134;52.020;4.714;2022-09-09T16:45:13;31.38;;;15.23;;
22786;SDS011;63134;52.020;4.714;2022-09-09T16:47:59;29.63;;;15.15;;
22786;SDS011;63134;52.020;4.714;2022-09-09T16:50:47;26.80;;;15.20;;
22786;SDS011;63134;52.020;4.714;2022-09-09T16:53:33;27.77;;;14.80;;
22786;SDS011;63134;52.020;4.714;2022-09-09T16:56:22;17.45;;;8.85;;
22786;SDS011;63134;52.020;4.714;2022-09-09T16:59:13;20.35;;;8.23;;
22786;SDS011;63134;52.020;4.714;2022-09-09T17:01:59;24.05;;;7.78;;
22786;SDS011;63134;52.020;4.714;2022-09-09T17:04:46;18.40;;;7.53;;
22786;SDS011;63134;52.020;4.714;2022-09-09T17:07:32;13.35;;;5.75;;
22786;SDS011;63134;52.020;4.714;2022-09-09T17:10:17;8.63;;;3.92;;
22786;SDS011;63134;52.020;4.714;2022-09-09T17:13:02;9.25;;;3.65;;
22786;SDS011;63134;52.020;4.714;2022-09-09T17:15:48;7.93;;;3.45;;
22786;SDS011;63134;52.020;4.714;2022-09-09T17:18:33;6.70;;;3.75;;
22786;SDS011;63134;52.020;4.714;2022-09-09T17:21:21;10.45;;;4.32;;
22786;SDS011;63134;52.020;4.714;2022-09-09T17:24:08;9.95;;;5.00;;
22786;SDS011;63134;52.020;4.714;2022-09-09T17:26:53;10.75;;;5.30;;
22786;SDS011;63134;52.020;4.714;2022-09-09T17:29:39;10.18;;;5.18;;
22786;SDS011;63134;52.020;4.714;2022-09-09T17:32:25;10.27;;;5.25;;
22786;SDS011;63134;52.020;4.714;2022-09-09T17:35:14;14.50;;;6.75;;
22786;SDS011;63134;52.020;4.714;2022-09-09T17:37:59;19.92;;;7.07;;
22786;SDS011;63134;52.020;4.714;2022-09-09T17:40:45;11.88;;;6.72;;
22786;SDS011;63134;52.020;4.714;2022-09-09T17:43:30;12.48;;;7.18;;
22786;SDS011;63134;52.020;4.714;2022-09-09T17:46:20;11.95;;;6.47;;
22786;SDS011;63134;52.020;4.714;2022-09-09T17:49:13;14.63;;;6.15;;
22786;SDS011;63134;52.020;4.714;2022-09-09T17:52:01;14.02;;;6.55;;
22786;SDS011;63134;52.020;4.714;2022-09-09T17:54:46;12.93;;;6.88;;
22786;SDS011;63134;52.020;4.714;2022-09-09T17:57:32;12.05;;;6.65;;
22786;SDS011;63134;52.020;4.714;2022-09-09T18:00:18;17.30;;;6.43;;
22786;SDS011;63134;52.020;4.714;2022-09-09T18:03:04;14.10;;;6.35;;
22786;SDS011;63134;52.020;4.714;2022-09-09T18:05:49;15.10;;;6.55;;
22786;SDS011;63134;52.020;4.714;2022-09-09T18:08:35;17.70;;;6.28;;
22786;SDS011;63134;52.020;4.714;2022-09-09T18:11:21;16.75;;;5.65;;
22786;SDS011;63134;52.020;4.714;2022-09-09T18:14:10;15.70;;;5.40;;
22786;SDS011;63134;52.020;4.714;2022-09-09T18:16:57;12.35;;;5.20;;
22786;SDS011;63134;52.020;4.714;2022-09-09T18:19:43;14.90;;;5.20;;
22786;SDS011;63134;52.020;4.714;2022-09-09T18:22:29;9.90;;;4.75;;